createdAt,value
2022-09-17T00:01:34.621Z,1.80
2022-09-17T00:04:05.115Z,2.15
2022-09-17T00:06:34.890Z,1.58
2022-09-17T00:09:04.151Z,1.50
2022-09-17T00:11:35.167Z,1.70
2022-09-17T00:14:07.132Z,1.50
2022-09-17T00:16:37.931Z,1.75
2022-09-17T00:19:08.371Z,2.10
2022-09-17T00:21:36.676Z,1.85
2022-09-17T00:24:08.500Z,1.70
2022-09-17T00:26:37.385Z,1.90
2022-09-17T00:29:07.275Z,1.75
2022-09-17T00:31:36.686Z,2.28
2022-09-17T00:34:06.229Z,1.85
2022-09-17T00:36:36.753Z,2.10
2022-09-17T00:39:06.856Z,2.20
2022-09-17T00:41:37.114Z,1.73
2022-09-17T00:44:42.386Z,2.60
2022-09-17T00:47:16.462Z,2.00
2022-09-17T00:49:45.752Z,1.83
2022-09-17T00:52:18.421Z,1.70
2022-09-17T00:54:52.107Z,2.05
2022-09-17T00:57:20.664Z,2.05
2022-09-17T00:59:50.434Z,2.35
2022-09-17T01:02:18.813Z,2.03
2022-09-17T01:04:47.037Z,2.20
2022-09-17T01:07:26.019Z,2.13
2022-09-17T01:09:58.298Z,2.35
2022-09-17T01:12:45.957Z,2.13
2022-09-17T01:15:29.272Z,1.70
2022-09-17T01:18:15.205Z,1.92
2022-09-17T01:21:19.236Z,2.30
2022-09-17T01:24:29.284Z,2.05
2022-09-17T01:27:26.403Z,1.90
2022-09-17T01:30:08.897Z,1.63
2022-09-17T01:32:43.820Z,1.70
2022-09-17T01:35:19.277Z,1.98
2022-09-17T01:37:55.458Z,1.83
2022-09-17T01:40:28.883Z,1.58
2022-09-17T01:43:05.352Z,2.20
2022-09-17T01:45:39.775Z,1.60
2022-09-17T01:48:14.856Z,1.80
2022-09-17T01:50:48.226Z,1.75
2022-09-17T01:53:19.020Z,1.58
2022-09-17T01:55:49.362Z,1.80
2022-09-17T01:58:22.151Z,2.50
2022-09-17T02:00:57.312Z,2.20
2022-09-17T02:03:33.121Z,1.98
2022-09-17T02:06:09.486Z,1.85
2022-09-17T02:08:42.801Z,2.03
2022-09-17T02:11:14.541Z,2.13
2022-09-17T02:13:47.425Z,2.17
2022-09-17T02:16:20.968Z,2.13
2022-09-17T02:18:56.097Z,2.03
2022-09-17T02:21:31.411Z,1.77
2022-09-17T02:24:07.256Z,2.20
2022-09-17T02:26:40.528Z,2.30
2022-09-17T02:29:14.367Z,1.73
2022-09-17T02:31:42.644Z,1.60
2022-09-17T02:34:12.880Z,1.70
2022-09-17T02:36:41.038Z,2.30
2022-09-17T02:39:10.741Z,1.67
2022-09-17T02:41:47.197Z,1.60
2022-09-17T02:44:23.330Z,1.50
2022-09-17T02:47:09.751Z,1.70
2022-09-17T02:50:04.317Z,2.10
2022-09-17T02:52:45.525Z,1.73
2022-09-17T02:55:19.772Z,1.95
2022-09-17T02:57:55.344Z,1.83
2022-09-17T03:00:26.238Z,1.60
2022-09-17T03:02:59.882Z,1.90
2022-09-17T03:05:30.603Z,1.73
2022-09-17T03:08:00.444Z,1.70
2022-09-17T03:10:33.501Z,1.92
2022-09-17T03:13:01.684Z,2.25
2022-09-17T03:15:29.813Z,1.98
2022-09-17T03:17:58.004Z,1.95
2022-09-17T03:20:26.247Z,1.70
2022-09-17T03:22:55.864Z,1.90
2022-09-17T03:25:24.087Z,2.00
2022-09-17T03:27:52.510Z,1.75
2022-09-17T03:30:21.098Z,1.70
2022-09-17T03:32:49.227Z,1.65
2022-09-17T03:35:17.755Z,1.98
2022-09-17T03:37:47.484Z,1.83
2022-09-17T03:40:17.263Z,2.00
2022-09-17T03:42:45.660Z,1.85
2022-09-17T03:45:13.901Z,2.35
2022-09-17T03:47:42.051Z,2.20
2022-09-17T03:50:10.774Z,2.50
2022-09-17T03:52:39.071Z,1.60
2022-09-17T03:55:08.462Z,1.95
2022-09-17T03:57:38.105Z,2.40
2022-09-17T04:00:07.849Z,1.80
2022-09-17T04:02:36.214Z,2.03
2022-09-17T04:05:04.720Z,1.90
2022-09-17T04:07:32.864Z,1.95
2022-09-17T04:10:01.008Z,1.80
2022-09-17T04:12:29.121Z,1.88
2022-09-17T04:14:58.656Z,2.03
2022-09-17T04:17:26.775Z,2.85
2022-09-17T04:19:55.286Z,2.83
2022-09-17T04:22:23.632Z,2.42
2022-09-17T04:24:51.847Z,2.70
2022-09-17T04:27:20.107Z,2.47
2022-09-17T04:29:48.265Z,2.30
2022-09-17T04:32:17.792Z,2.40
2022-09-17T04:34:45.937Z,2.20
2022-09-17T04:37:14.112Z,3.00
2022-09-17T04:39:42.288Z,2.60
2022-09-17T04:42:10.540Z,2.10
2022-09-17T04:44:38.800Z,2.55
2022-09-17T04:47:07.191Z,2.50
2022-09-17T04:49:36.817Z,3.22
2022-09-17T04:52:05.063Z,2.58
2022-09-17T04:54:33.332Z,2.58
2022-09-17T04:57:01.774Z,2.40
2022-09-17T04:59:29.915Z,2.60
2022-09-17T05:01:58.180Z,2.90
2022-09-17T05:04:26.328Z,2.75
2022-09-17T05:06:55.888Z,2.15
2022-09-17T05:09:23.991Z,2.55
2022-09-17T05:11:52.145Z,2.40
2022-09-17T05:14:20.540Z,3.00
2022-09-17T05:16:48.740Z,3.55
2022-09-17T05:19:17.232Z,3.75
2022-09-17T05:21:45.361Z,2.67
2022-09-17T05:24:15.023Z,2.90
2022-09-17T05:26:43.165Z,2.92
2022-09-17T05:29:11.339Z,3.50
2022-09-17T05:31:39.506Z,3.35
2022-09-17T05:34:07.660Z,2.80
2022-09-17T05:36:35.905Z,3.00
2022-09-17T05:39:04.125Z,3.17
2022-09-17T05:41:35.240Z,3.00
2022-09-17T05:44:03.804Z,3.42
2022-09-17T05:46:32.026Z,3.05
2022-09-17T05:49:00.181Z,3.33
2022-09-17T05:51:28.375Z,3.45
2022-09-17T05:53:56.839Z,4.00
2022-09-17T05:56:25.257Z,3.83
2022-09-17T05:58:58.535Z,3.33
2022-09-17T06:01:26.976Z,3.65
2022-09-17T06:03:55.569Z,4.40
2022-09-17T06:06:23.755Z,4.32
2022-09-17T06:08:51.944Z,4.20
2022-09-17T06:11:20.155Z,3.55
2022-09-17T06:13:49.821Z,4.32
2022-09-17T06:16:19.402Z,4.13
2022-09-17T06:18:47.632Z,4.53
2022-09-17T06:21:15.929Z,4.20
2022-09-17T06:23:44.205Z,3.97
2022-09-17T06:26:12.866Z,3.30
2022-09-17T06:28:42.047Z,3.30
2022-09-17T06:31:12.048Z,3.60
2022-09-17T06:33:41.691Z,3.10
2022-09-17T06:36:14.149Z,3.13
2022-09-17T06:38:43.195Z,3.58
2022-09-17T06:41:12.569Z,3.40
2022-09-17T06:43:40.692Z,2.55
2022-09-17T06:46:09.405Z,2.45
2022-09-17T06:48:38.879Z,2.97
2022-09-17T06:51:11.612Z,2.75
2022-09-17T06:53:40.309Z,2.58
2022-09-17T06:56:10.003Z,2.35
2022-09-17T06:58:38.904Z,2.67
2022-09-17T07:01:07.417Z,2.20
2022-09-17T07:03:36.031Z,2.25
2022-09-17T07:06:04.285Z,2.00
2022-09-17T07:08:35.770Z,2.10
2022-09-17T07:11:03.936Z,1.73
2022-09-17T07:13:32.254Z,2.10
2022-09-17T07:16:03.105Z,2.28
2022-09-17T07:18:31.424Z,1.83
2022-09-17T07:21:00.654Z,1.88
2022-09-17T07:23:30.142Z,1.95
2022-09-17T07:26:01.248Z,1.80
2022-09-17T07:28:30.191Z,1.40
2022-09-17T07:30:58.815Z,1.27
2022-09-17T07:33:29.138Z,1.10
2022-09-17T07:35:58.356Z,1.10
2022-09-17T07:38:27.359Z,1.27
2022-09-17T07:41:01.634Z,1.70
2022-09-17T07:43:31.731Z,1.40
2022-09-17T07:46:01.231Z,1.50
2022-09-17T07:48:30.457Z,1.70
2022-09-17T07:50:58.912Z,1.20
2022-09-17T07:53:27.640Z,0.90
2022-09-17T07:55:57.435Z,1.00
2022-09-17T07:58:31.645Z,1.20
2022-09-17T08:01:03.676Z,0.93
2022-09-17T08:03:31.914Z,1.10
2022-09-17T08:06:05.431Z,1.00
2022-09-17T08:08:36.087Z,0.90
2022-09-17T08:11:05.721Z,1.20
2022-09-17T08:13:36.369Z,1.20
2022-09-17T08:16:07.240Z,1.10
2022-09-17T08:18:36.491Z,1.15
2022-09-17T08:21:06.959Z,1.35
2022-09-17T08:23:37.956Z,1.25
2022-09-17T08:26:08.907Z,1.88
2022-09-17T08:28:39.183Z,1.30
2022-09-17T08:31:09.940Z,1.30
2022-09-17T08:33:40.343Z,1.58
2022-09-17T08:36:11.359Z,1.40
2022-09-17T08:38:40.035Z,1.20
2022-09-17T08:41:25.565Z,1.20
2022-09-17T08:44:09.113Z,1.10
2022-09-17T08:46:44.143Z,1.55
2022-09-17T08:49:21.846Z,2.17
2022-09-17T08:51:59.629Z,5.50
2022-09-17T08:54:34.556Z,1.55
2022-09-17T08:57:16.526Z,1.85
2022-09-17T08:59:52.370Z,1.75
2022-09-17T09:02:34.051Z,1.60
2022-09-17T09:05:09.529Z,2.10
2022-09-17T09:07:42.498Z,3.40
2022-09-17T09:10:17.944Z,2.28
2022-09-17T09:12:47.254Z,2.63
2022-09-17T09:15:33.671Z,2.30
2022-09-17T09:18:10.584Z,2.42
2022-09-17T09:20:47.714Z,2.40
2022-09-17T09:23:20.356Z,1.90
2022-09-17T09:26:02.143Z,2.20
2022-09-17T09:28:45.973Z,2.25
2022-09-17T09:31:37.624Z,2.10
2022-09-17T09:34:06.316Z,1.90
2022-09-17T09:36:35.454Z,2.33
2022-09-17T09:39:11.049Z,2.78
2022-09-17T09:41:45.040Z,5.35
2022-09-17T09:44:15.762Z,2.97
2022-09-17T09:47:08.840Z,4.35
2022-09-17T09:49:54.455Z,4.20
2022-09-17T09:52:34.168Z,11.00
2022-09-17T09:55:19.828Z,9.40
2022-09-17T09:57:53.296Z,4.57
2022-09-17T10:00:30.514Z,7.50
2022-09-17T10:03:05.968Z,5.88
2022-09-17T10:05:34.300Z,5.65
2022-09-17T10:08:11.632Z,5.07
2022-09-17T10:10:55.868Z,6.00
2022-09-17T10:13:24.269Z,4.00
2022-09-17T10:15:52.485Z,3.90
2022-09-17T10:18:24.764Z,3.50
2022-09-17T10:20:55.979Z,3.10
2022-09-17T10:23:26.116Z,3.03
2022-09-17T10:25:55.805Z,3.42
2022-09-17T10:28:40.192Z,3.28
2022-09-17T10:31:10.722Z,3.63
2022-09-17T10:33:52.832Z,3.00
2022-09-17T10:36:42.791Z,3.33
2022-09-17T10:39:28.287Z,3.22
2022-09-17T10:41:57.267Z,1.80
2022-09-17T10:44:26.490Z,2.67
2022-09-17T10:46:55.956Z,3.00
2022-09-17T10:49:37.344Z,2.07
2022-09-17T10:52:08.476Z,2.37
2022-09-17T10:55:08.903Z,2.20
2022-09-17T10:58:07.742Z,2.27
2022-09-17T11:00:45.242Z,2.30
2022-09-17T11:03:43.700Z,1.33
2022-09-17T11:06:28.620Z,1.40
2022-09-17T11:09:10.043Z,2.00
2022-09-17T11:11:49.820Z,1.90
2022-09-17T11:14:35.991Z,2.10
2022-09-17T11:17:13.320Z,2.10
2022-09-17T11:19:49.484Z,1.70
2022-09-17T11:22:25.615Z,1.90
2022-09-17T11:25:23.260Z,1.75
2022-09-17T11:28:03.910Z,1.55
2022-09-17T11:30:41.142Z,1.87
2022-09-17T11:33:48.543Z,1.77
2022-09-17T11:36:22.980Z,1.73
2022-09-17T11:38:53.909Z,1.90
2022-09-17T11:41:24.927Z,2.42
2022-09-17T11:44:01.788Z,1.50
2022-09-17T11:46:35.718Z,1.20
2022-09-17T11:49:06.948Z,1.30
2022-09-17T11:51:40.087Z,1.13
2022-09-17T11:54:21.970Z,1.03
2022-09-17T11:56:53.284Z,0.80
2022-09-17T11:59:26.435Z,1.10
2022-09-17T12:01:58.727Z,0.90
2022-09-17T12:04:37.698Z,0.90
2022-09-17T12:07:22.515Z,1.00
2022-09-17T12:09:58.320Z,0.83
2022-09-17T12:12:48.356Z,1.00
2022-09-17T12:15:21.894Z,1.00
2022-09-17T12:18:20.659Z,1.00
2022-09-17T12:20:50.718Z,0.90
2022-09-17T12:23:28.097Z,0.90
2022-09-17T12:26:07.388Z,0.80
2022-09-17T12:28:45.096Z,0.90
2022-09-17T12:31:19.464Z,0.90
2022-09-17T12:33:53.174Z,1.00
2022-09-17T12:36:31.471Z,1.00
2022-09-17T12:39:21.781Z,1.03
2022-09-17T12:42:01.117Z,1.02
2022-09-17T12:45:14.110Z,1.10
2022-09-17T12:48:04.896Z,1.00
2022-09-17T12:50:44.703Z,1.20
2022-09-17T12:53:23.476Z,1.10
2022-09-17T12:56:03.424Z,1.10
2022-09-17T12:59:05.336Z,1.20
2022-09-17T13:01:41.982Z,1.00
2022-09-17T13:04:33.459Z,1.20
2022-09-17T13:07:39.241Z,1.35
2022-09-17T13:10:41.703Z,1.35
2022-09-17T13:13:29.620Z,1.70
2022-09-17T13:16:13.301Z,2.47
2022-09-17T13:19:05.552Z,1.45
2022-09-17T13:21:44.223Z,1.55
2022-09-17T13:24:18.186Z,1.10
2022-09-17T13:26:47.193Z,1.30
2022-09-17T13:29:53.820Z,1.48
2022-09-17T13:32:46.010Z,1.40
2022-09-17T13:35:48.964Z,1.73
2022-09-17T13:38:21.655Z,2.20
2022-09-17T13:40:52.345Z,2.17
2022-09-17T13:43:26.612Z,1.40
2022-09-17T13:46:12.503Z,1.80
2022-09-17T13:48:50.959Z,1.60
2022-09-17T13:51:47.839Z,1.67
2022-09-17T13:54:18.015Z,2.03
2022-09-17T13:56:48.263Z,1.92
2022-09-17T13:59:19.577Z,2.10
2022-09-17T14:02:36.466Z,1.70
2022-09-17T14:05:35.983Z,1.67
2022-09-17T14:08:29.275Z,2.03
2022-09-17T14:10:59.800Z,1.60
2022-09-17T14:13:46.123Z,1.73
2022-09-17T14:16:35.883Z,1.30
2022-09-17T14:19:18.888Z,1.88
2022-09-17T14:22:00.522Z,1.75
2022-09-17T14:24:36.051Z,2.05
2022-09-17T14:27:22.764Z,1.95
2022-09-17T14:30:07.065Z,1.70
2022-09-17T14:32:42.321Z,1.77
2022-09-17T14:35:21.883Z,1.80
2022-09-17T14:37:56.314Z,1.70
2022-09-17T14:40:25.498Z,1.80
2022-09-17T14:42:56.885Z,1.52
2022-09-17T14:45:32.640Z,1.77
2022-09-17T14:48:21.070Z,1.83
2022-09-17T14:50:49.303Z,1.98
2022-09-17T14:53:21.053Z,2.10
2022-09-17T14:55:50.462Z,2.30
2022-09-17T14:58:33.647Z,1.98
2022-09-17T15:01:02.239Z,1.98
2022-09-17T15:03:30.415Z,1.80
2022-09-17T15:05:58.664Z,2.03
2022-09-17T15:08:30.427Z,1.70
2022-09-17T15:11:01.626Z,2.67
2022-09-17T15:13:31.546Z,1.85
2022-09-17T15:16:03.642Z,1.90
2022-09-17T15:18:39.230Z,2.08
2022-09-17T15:21:20.882Z,2.30
2022-09-17T15:23:57.020Z,2.17
2022-09-17T15:26:31.942Z,2.30
2022-09-17T15:29:01.820Z,3.10
2022-09-17T15:31:30.862Z,2.65
2022-09-17T15:34:01.810Z,2.75
2022-09-17T15:36:31.847Z,3.83
2022-09-17T15:39:01.633Z,3.42
2022-09-17T15:41:35.111Z,3.63
2022-09-17T15:44:30.726Z,4.90
2022-09-17T15:47:32.821Z,4.22
2022-09-17T15:50:18.539Z,4.85
2022-09-17T15:52:47.357Z,3.80
2022-09-17T15:55:35.583Z,3.50
2022-09-17T15:58:06.434Z,2.50
2022-09-17T16:00:34.619Z,3.55
2022-09-17T16:03:48.809Z,2.33
2022-09-17T16:06:38.487Z,3.08
2022-09-17T16:09:40.059Z,3.78
2022-09-17T16:12:12.112Z,4.70
2022-09-17T16:14:40.411Z,3.78
2022-09-17T16:17:48.823Z,3.90
2022-09-17T16:20:22.449Z,2.75
2022-09-17T16:22:52.353Z,2.63
2022-09-17T16:25:24.511Z,9.48
